Main page
METAR-TAF:

METAR-TAF

Airports :

Sofia Airport

Sofia, Bulgaria

latitude: 42-39N, longitude: 023-23E, elevation: 586 m

Current weather observation

The report was made 22 minutes ago, at 03:30 UTC
Calm wind
Temperature 9°C
Humidity 93%
Pressure 1024 hPa
Visibility 10 km or more
no clouds below 1500 m and no cumulonimbus

METAR: LBSF 260330Z 00000KT CAVOK 09/08 Q1024 NOSIG

Time: 06:52 (03:52 UTC)

Forecast

The report was made 4 hours and 52 minutes ago, at 23:00 UTC
Forecast valid from 26 at 00 UTC to 26 at 24 UTC
Wind 4 kt from variable directions
Visibility 10 km or more
no clouds below 1500 m and no cumulonimbus
Becoming
from 26 at 12 UTC to 26 at 14 UTC
Wind 10 kt from the East/Southeast
Becoming
from 26 at 17 UTC to 26 at 19 UTC
Wind 4 kt from variable directions

TAF: LBSF 252300Z 2600/2624 VRB04KT CAVOK BECMG 2612/2614 11010KT BECMG 2617/2619 VRB04KT

Weather observations and forecasts of more than 4000 airports (METAR and TAF reports).

The available stations are represented by yellow and red dots on the map.

Hover mouse over dot to see the name of the station.

Then click to see weather observations and forecasts.

To change the map : click on the green buttons with a black cross to zoom in, on the green button with a dash to zoom out, or on the green arrows for adjacent maps.


METAR-TAF: